Time;durP1;ratioP1;P1;durP2;ratioP2;P2;SDS_P1;SDS_P2;PMS_P1;PMS_P2;Temp;Humidity;BMP_temperature;BMP_pressure;BME280_temperature;BME280_humidity;BME280_pressure;Samples;Min_cycle;Max_cycle;Signal;HPM_P1;HPM_P2
2022/08/25 00:01:10;;;;;;;25.92;22.33;;;;;;;;;;5036517;28;20388;-72
2022/08/25 00:03:37;;;;;;;31.35;22.60;;;;;;;;;;5047657;28;20486;-72
2022/08/25 00:06:04;;;;;;;31.70;22.67;;;;;;;;;;5055538;28;20053;-71
2022/08/25 00:08:30;;;;;;;27.95;21.77;;;;;;;;;;5035951;28;20025;-70
2022/08/25 00:10:56;;;;;;;25.15;22.35;;;;;;;;;;5034980;28;20025;-70
2022/08/25 00:13:22;;;;;;;25.30;20.90;;;;;;;;;;5062955;28;20021;-71
2022/08/25 00:15:48;;;;;;;29.23;22.35;;;;;;;;;;5041667;28;20386;-71
2022/08/25 00:18:14;;;;;;;25.55;21.25;;;;;;;;;;5035288;28;20072;-70
2022/08/25 00:20:40;;;;;;;30.45;22.27;;;;;;;;;;5032587;28;20404;-70
2022/08/25 00:23:06;;;;;;;26.73;22.05;;;;;;;;;;5046752;28;20070;-71
2022/08/25 00:25:32;;;;;;;29.20;22.85;;;;;;;;;;5043826;28;20158;-71
2022/08/25 00:27:58;;;;;;;28.15;22.85;;;;;;;;;;5035119;28;20075;-70
2022/08/25 00:30:24;;;;;;;28.40;21.98;;;;;;;;;;5029012;28;20086;-70
2022/08/25 00:32:50;;;;;;;23.63;21.02;;;;;;;;;;5044329;28;20117;-70
2022/08/25 00:35:16;;;;;;;28.77;20.65;;;;;;;;;;5044645;28;20028;-69
2022/08/25 00:37:42;;;;;;;27.77;22.00;;;;;;;;;;5037533;28;20017;-69
2022/08/25 00:40:10;;;;;;;26.45;21.33;;;;;;;;;;5032680;28;20407;-70
2022/08/25 00:42:37;;;;;;;27.00;22.65;;;;;;;;;;5043136;28;20067;-70
2022/08/25 00:45:05;;;;;;;26.33;21.27;;;;;;;;;;5039436;28;20386;-70
2022/08/25 00:47:31;;;;;;;36.72;22.48;;;;;;;;;;5037822;28;20052;-70
2022/08/25 00:50:00;;;;;;;24.02;20.83;;;;;;;;;;5031955;28;20040;-69
2022/08/25 00:52:26;;;;;;;31.75;21.40;;;;;;;;;;5042716;28;20055;-71
2022/08/25 00:55:04;;;;;;;27.88;21.10;;;;;;;;;;5041608;28;20053;-68
2022/08/25 00:57:42;;;;;;;27.48;22.33;;;;;;;;;;5037719;28;20034;-72
2022/08/25 01:00:11;;;;;;;33.65;21.92;;;;;;;;;;5028383;28;20482;-71
2022/08/25 01:02:38;;;;;;;27.85;22.30;;;;;;;;;;5042653;28;20116;-69
2022/08/25 01:05:04;;;;;;;31.85;21.17;;;;;;;;;;5043276;28;20364;-70
2022/08/25 01:07:32;;;;;;;32.35;21.27;;;;;;;;;;5037646;28;20033;-70
2022/08/25 01:09:59;;;;;;;25.83;22.33;;;;;;;;;;5032011;28;20029;-70
2022/08/25 01:12:25;;;;;;;26.38;21.45;;;;;;;;;;5042650;28;20028;-70
2022/08/25 01:14:51;;;;;;;26.77;22.45;;;;;;;;;;5041200;28;20025;-70
2022/08/25 01:17:17;;;;;;;29.35;22.70;;;;;;;;;;5054719;28;20067;-72
2022/08/25 01:19:43;;;;;;;29.40;22.73;;;;;;;;;;5032016;28;20021;-71
2022/08/25 01:22:10;;;;;;;25.15;21.05;;;;;;;;;;5042916;28;20029;-69
2022/08/25 01:24:36;;;;;;;27.33;23.15;;;;;;;;;;5040328;28;20340;-70
2022/08/25 01:27:03;;;;;;;29.13;20.90;;;;;;;;;;5039876;28;20022;-70
2022/08/25 01:29:29;;;;;;;32.42;22.77;;;;;;;;;;5028585;28;20083;-68
2022/08/25 01:31:56;;;;;;;27.23;20.23;;;;;;;;;;5040546;28;20132;-70
2022/08/25 01:34:23;;;;;;;27.60;21.48;;;;;;;;;;5037377;28;20458;-70
2022/08/25 01:36:49;;;;;;;28.92;20.98;;;;;;;;;;5038003;28;20025;-70
2022/08/25 01:39:15;;;;;;;26.27;20.65;;;;;;;;;;5034221;28;20503;-70
2022/08/25 01:41:44;;;;;;;32.08;22.50;;;;;;;;;;5038813;28;20025;-70
2022/08/25 01:44:10;;;;;;;29.27;20.95;;;;;;;;;;5038955;28;20033;-68
2022/08/25 01:46:37;;;;;;;27.17;19.75;;;;;;;;;;5037191;28;20476;-70
2022/08/25 01:49:03;;;;;;;28.38;22.10;;;;;;;;;;5034779;28;20451;-70
2022/08/25 01:51:32;;;;;;;22.65;20.20;;;;;;;;;;5038413;28;20020;-71
2022/08/25 01:53:58;;;;;;;49.72;24.70;;;;;;;;;;5048390;28;20047;-72
2022/08/25 01:56:24;;;;;;;63.92;24.80;;;;;;;;;;5041030;28;20061;-71
2022/08/25 01:58:50;;;;;;;44.92;23.02;;;;;;;;;;5034899;28;20026;-71
2022/08/25 02:01:18;;;;;;;45.72;22.30;;;;;;;;;;5039081;28;20082;-71
2022/08/25 02:03:47;;;;;;;36.10;23.95;;;;;;;;;;5049711;28;20021;-71
2022/08/25 02:06:14;;;;;;;35.85;21.27;;;;;;;;;;5040739;28;20112;-71
2022/08/25 02:08:41;;;;;;;31.77;20.20;;;;;;;;;;5037672;28;20060;-71
2022/08/25 02:11:11;;;;;;;25.27;20.50;;;;;;;;;;5038210;28;20018;-69
2022/08/25 02:13:37;;;;;;;30.25;20.52;;;;;;;;;;5049587;28;20024;-70
2022/08/25 02:16:03;;;;;;;22.48;19.20;;;;;;;;;;5042167;28;20022;-68
2022/08/25 02:18:29;;;;;;;24.90;20.42;;;;;;;;;;5037996;28;20394;-70
2022/08/25 02:20:55;;;;;;;22.88;19.52;;;;;;;;;;5036783;28;20456;-70
2022/08/25 02:23:21;;;;;;;25.25;18.88;;;;;;;;;;5064941;28;20109;-72
2022/08/25 02:25:47;;;;;;;22.63;18.17;;;;;;;;;;5044183;28;20039;-70
2022/08/25 02:28:13;;;;;;;24.48;18.42;;;;;;;;;;5037145;28;20037;-70
2022/08/25 02:30:41;;;;;;;25.90;20.13;;;;;;;;;;5030990;28;20029;-72
2022/08/25 02:33:07;;;;;;;30.55;20.50;;;;;;;;;;5063691;23;20042;-77
2022/08/25 02:35:33;;;;;;;26.35;20.17;;;;;;;;;;5026669;28;20191;-77
2022/08/25 02:38:00;;;;;;;23.92;20.52;;;;;;;;;;5019433;28;20022;-77
2022/08/25 02:40:26;;;;;;;25.63;19.80;;;;;;;;;;5016863;28;20025;-78
2022/08/25 02:42:52;;;;;;;27.30;20.88;;;;;;;;;;5022895;28;20396;-78
2022/08/25 02:45:18;;;;;;;24.27;19.45;;;;;;;;;;5014134;28;20464;-78
2022/08/25 02:47:45;;;;;;;22.98;18.92;;;;;;;;;;5001432;28;20030;-77
2022/08/25 02:50:11;;;;;;;26.02;20.80;;;;;;;;;;5000527;28;20083;-77
2022/08/25 02:52:38;;;;;;;27.40;19.10;;;;;;;;;;5010022;28;20108;-77
2022/08/25 02:55:06;;;;;;;20.33;18.05;;;;;;;;;;5008449;28;20062;-77
2022/08/25 02:57:32;;;;;;;19.65;17.63;;;;;;;;;;5002380;28;20023;-77
2022/08/25 02:59:58;;;;;;;25.67;17.90;;;;;;;;;;5000377;28;20026;-77
2022/08/25 03:02:24;;;;;;;22.63;19.58;;;;;;;;;;5007891;28;20061;-78
2022/08/25 03:04:51;;;;;;;27.30;18.75;;;;;;;;;;5004289;28;20054;-77
2022/08/25 03:07:17;;;;;;;38.38;28.40;;;;;;;;;;5003516;28;20029;-77
2022/08/25 03:09:44;;;;;;;95.95;52.47;;;;;;;;;;5004833;28;20085;-77
2022/08/25 03:12:11;;;;;;;27.58;21.40;;;;;;;;;;5005435;28;20539;-77
2022/08/25 03:14:37;;;;;;;37.45;22.23;;;;;;;;;;4999065;28;20069;-77
2022/08/25 03:17:04;;;;;;;217.30;111.40;;;;;;;;;;5002982;28;20022;-77
2022/08/25 03:19:30;;;;;;;30.83;22.92;;;;;;;;;;4994032;28;20018;-78
2022/08/25 03:21:56;;;;;;;71.45;41.28;;;;;;;;;;5003796;28;20104;-78
2022/08/25 03:24:22;;;;;;;97.90;50.75;;;;;;;;;;5004202;28;20089;-78
2022/08/25 03:26:55;;;;;;;32.08;22.42;;;;;;;;;;5010770;28;20029;-77
2022/08/25 03:29:26;;;;;;;53.72;31.02;;;;;;;;;;4996343;28;20030;-77
2022/08/25 03:31:53;;;;;;;36.22;24.33;;;;;;;;;;5003482;28;20056;-77
2022/08/25 03:34:20;;;;;;;30.45;20.33;;;;;;;;;;5004246;28;20038;-77
2022/08/25 03:36:48;;;;;;;30.00;19.48;;;;;;;;;;4993311;28;20182;-77
2022/08/25 03:39:15;;;;;;;26.20;20.17;;;;;;;;;;4997952;28;20023;-77
2022/08/25 03:41:42;;;;;;;29.08;20.77;;;;;;;;;;5002414;28;20034;-78
2022/08/25 03:44:08;;;;;;;27.58;19.83;;;;;;;;;;5009371;28;20046;-77
2022/08/25 03:46:38;;;;;;;29.52;20.08;;;;;;;;;;5004373;28;20034;-76
2022/08/25 03:49:05;;;;;;;28.17;20.63;;;;;;;;;;4996056;28;20113;-76
2022/08/25 03:51:35;;;;;;;28.55;19.83;;;;;;;;;;4999577;28;20018;-77
2022/08/25 03:54:02;;;;;;;24.98;18.40;;;;;;;;;;5008168;28;20029;-77
2022/08/25 03:56:28;;;;;;;23.83;18.83;;;;;;;;;;5004958;28;20030;-77
2022/08/25 03:58:55;;;;;;;22.80;17.98;;;;;;;;;;5001424;28;20030;-76
2022/08/25 04:01:21;;;;;;;22.63;18.05;;;;;;;;;;4998540;28;20022;-76
2022/08/25 04:04:19;;;;;;;23.60;19.45;;;;;;;;;;5136494;23;20103;-77
2022/08/25 04:07:14;;;;;;;31.98;19.63;;;;;;;;;;4986199;28;20034;-76
2022/08/25 04:09:49;;;;;;;29.27;19.25;;;;;;;;;;5001466;28;20130;-78
2022/08/25 04:12:15;;;;;;;24.83;18.55;;;;;;;;;;5024626;28;20032;-77
2022/08/25 04:14:41;;;;;;;21.45;17.70;;;;;;;;;;5003168;28;20018;-77
2022/08/25 04:17:07;;;;;;;21.75;17.90;;;;;;;;;;5028812;22;20041;-69
2022/08/25 04:19:34;;;;;;;24.08;17.48;;;;;;;;;;5012985;28;20040;-69
2022/08/25 04:22:00;;;;;;;22.30;17.63;;;;;;;;;;5022653;28;20022;-70
2022/08/25 04:24:26;;;;;;;23.50;17.67;;;;;;;;;;5022278;28;20036;-70
2022/08/25 04:26:52;;;;;;;23.35;17.02;;;;;;;;;;5019734;28;20028;-70
2022/08/25 04:29:19;;;;;;;21.00;16.50;;;;;;;;;;4998394;28;20022;-70
2022/08/25 04:31:48;;;;;;;20.25;17.05;;;;;;;;;;5009501;28;20014;-70
2022/08/25 04:34:15;;;;;;;19.88;16.95;;;;;;;;;;5015864;28;20015;-70
2022/08/25 04:36:41;;;;;;;22.55;16.73;;;;;;;;;;5005178;28;20022;-70
2022/08/25 04:39:07;;;;;;;18.25;15.32;;;;;;;;;;5001315;28;20391;-70
2022/08/25 04:41:33;;;;;;;21.40;16.92;;;;;;;;;;5006180;28;20021;-70
2022/08/25 04:44:00;;;;;;;20.60;15.05;;;;;;;;;;5014556;28;20484;-69
2022/08/25 04:46:27;;;;;;;16.33;14.63;;;;;;;;;;5004737;28;20030;-70
2022/08/25 04:48:54;;;;;;;20.02;15.30;;;;;;;;;;5000739;28;20076;-70
2022/08/25 04:51:24;;;;;;;20.48;14.63;;;;;;;;;;5014386;28;20444;-70
2022/08/25 04:53:50;;;;;;;16.95;14.50;;;;;;;;;;5021999;28;20096;-70
2022/08/25 04:56:18;;;;;;;18.67;14.05;;;;;;;;;;5004736;28;20022;-70
2022/08/25 04:58:45;;;;;;;17.85;14.52;;;;;;;;;;4999412;28;20037;-70
2022/08/25 05:01:18;;;;;;;16.67;14.32;;;;;;;;;;5000515;28;20021;-71
2022/08/25 05:03:45;;;;;;;21.17;16.33;;;;;;;;;;5022308;28;20017;-71
2022/08/25 05:06:11;;;;;;;20.70;15.95;;;;;;;;;;5005330;28;20026;-70
2022/08/25 05:08:38;;;;;;;21.50;14.73;;;;;;;;;;4998812;28;20161;-71
2022/08/25 05:11:16;;;;;;;17.40;14.07;;;;;;;;;;4999479;28;20025;-70
2022/08/25 05:13:42;;;;;;;22.58;14.20;;;;;;;;;;5022404;28;20021;-71
2022/08/25 05:16:08;;;;;;;19.67;14.60;;;;;;;;;;5005594;28;20088;-70
2022/08/25 05:18:34;;;;;;;18.25;14.70;;;;;;;;;;4998801;28;20022;-70
2022/08/25 05:21:02;;;;;;;18.10;14.02;;;;;;;;;;4998563;28;20030;-70
2022/08/25 05:23:28;;;;;;;21.60;14.30;;;;;;;;;;5022104;28;20037;-71
2022/08/25 05:25:55;;;;;;;17.30;13.63;;;;;;;;;;5012042;28;20154;-70
2022/08/25 05:28:21;;;;;;;21.48;13.90;;;;;;;;;;5002720;28;20457;-70
2022/08/25 05:30:48;;;;;;;21.98;13.27;;;;;;;;;;4998490;28;20041;-69
2022/08/25 05:33:15;;;;;;;16.70;12.57;;;;;;;;;;5025836;28;20483;-68
2022/08/25 05:35:42;;;;;;;20.35;13.18;;;;;;;;;;5012902;28;20404;-69
2022/08/25 05:38:09;;;;;;;18.17;11.52;;;;;;;;;;5010632;28;20104;-69
2022/08/25 05:40:35;;;;;;;20.90;14.25;;;;;;;;;;4997169;28;20033;-70
2022/08/25 05:43:01;;;;;;;21.63;13.40;;;;;;;;;;5027101;28;20021;-69
2022/08/25 05:45:27;;;;;;;20.20;14.18;;;;;;;;;;5016125;28;20022;-71
2022/08/25 05:47:53;;;;;;;18.98;14.07;;;;;;;;;;5001140;28;20033;-69
2022/08/25 05:50:20;;;;;;;17.63;13.43;;;;;;;;;;5006334;28;20017;-70
2022/08/25 05:52:46;;;;;;;18.52;12.70;;;;;;;;;;5021565;28;20022;-69
2022/08/25 05:55:14;;;;;;;20.80;14.73;;;;;;;;;;5020077;28;20024;-70
2022/08/25 05:57:40;;;;;;;19.63;14.45;;;;;;;;;;5005819;28;20019;-70
2022/08/25 06:00:07;;;;;;;22.27;13.38;;;;;;;;;;4996736;28;20080;-70
2022/08/25 06:02:47;;;;;;;21.73;15.25;;;;;;;;;;5018512;28;20033;-69
2022/08/25 06:05:22;;;;;;;15.20;12.67;;;;;;;;;;5010438;28;20033;-70
2022/08/25 06:07:50;;;;;;;21.00;13.30;;;;;;;;;;5003582;28;20022;-70
2022/08/25 06:10:16;;;;;;;22.63;13.63;;;;;;;;;;4996658;28;20065;-71
2022/08/25 06:12:43;;;;;;;21.23;14.90;;;;;;;;;;5018342;28;20023;-71
2022/08/25 06:15:10;;;;;;;25.08;14.32;;;;;;;;;;5000894;28;20030;-72
2022/08/25 06:17:39;;;;;;;20.42;13.50;;;;;;;;;;5005760;28;20389;-71
2022/08/25 06:20:07;;;;;;;16.77;13.20;;;;;;;;;;5007456;28;20105;-71
2022/08/25 06:22:32;;;;;;;21.00;13.18;;;;;;;;;;5005616;28;20061;-71
2022/08/25 06:24:58;;;;;;;18.27;12.02;;;;;;;;;;5015337;28;20041;-71
2022/08/25 06:27:24;;;;;;;20.33;12.57;;;;;;;;;;5009333;28;20032;-71
2022/08/25 06:29:50;;;;;;;21.35;12.95;;;;;;;;;;4996286;28;20045;-70
2022/08/25 06:32:16;;;;;;;19.50;13.82;;;;;;;;;;5017652;28;20026;-70
2022/08/25 06:34:42;;;;;;;20.17;10.95;;;;;;;;;;5018684;28;20197;-71
2022/08/25 06:37:08;;;;;;;20.67;14.30;;;;;;;;;;5000432;28;20013;-70
2022/08/25 06:39:35;;;;;;;19.15;14.10;;;;;;;;;;5008388;28;20030;-70
2022/08/25 06:42:01;;;;;;;16.88;12.68;;;;;;;;;;5015768;28;20029;-70
2022/08/25 06:44:28;;;;;;;27.58;15.60;;;;;;;;;;5010251;28;20044;-70
2022/08/25 06:46:54;;;;;;;23.35;14.63;;;;;;;;;;5009823;28;20062;-71
2022/08/25 06:49:20;;;;;;;24.20;14.73;;;;;;;;;;4999446;28;20100;-70
2022/08/25 06:51:46;;;;;;;17.10;13.30;;;;;;;;;;5023354;28;20092;-71
2022/08/25 06:54:12;;;;;;;25.73;14.80;;;;;;;;;;5017941;28;20023;-71
2022/08/25 06:56:40;;;;;;;18.83;11.88;;;;;;;;;;5006418;28;20032;-69
2022/08/25 06:59:06;;;;;;;14.55;10.43;;;;;;;;;;5002729;28;20029;-71
2022/08/25 07:01:33;;;;;;;19.33;12.75;;;;;;;;;;5007135;28;20032;-70
2022/08/25 07:04:00;;;;;;;17.15;12.35;;;;;;;;;;5020374;28;20034;-70
2022/08/25 07:06:27;;;;;;;26.65;13.32;;;;;;;;;;5006433;28;20053;-70
2022/08/25 07:08:53;;;;;;;20.33;12.70;;;;;;;;;;5002231;28;20544;-70
2022/08/25 07:11:20;;;;;;;17.67;13.77;;;;;;;;;;5003453;28;20079;-70
2022/08/25 07:13:46;;;;;;;21.08;12.77;;;;;;;;;;5023907;28;20424;-70
2022/08/25 07:16:14;;;;;;;23.55;13.52;;;;;;;;;;5006331;28;20030;-69
2022/08/25 07:18:40;;;;;;;17.42;14.00;;;;;;;;;;5002135;28;20030;-70
2022/08/25 07:21:06;;;;;;;22.67;14.10;;;;;;;;;;5014881;28;20455;-71
2022/08/25 07:23:32;;;;;;;22.02;13.35;;;;;;;;;;5021417;28;20066;-72
2022/08/25 07:26:07;;;;;;;20.60;14.32;;;;;;;;;;5007324;28;20022;-71
2022/08/25 07:28:33;;;;;;;21.63;14.20;;;;;;;;;;4999559;28;20014;-71
2022/08/25 07:31:00;;;;;;;16.73;14.13;;;;;;;;;;4997741;28;20018;-70
2022/08/25 07:33:26;;;;;;;19.15;14.98;;;;;;;;;;5022800;28;20103;-73
2022/08/25 07:35:53;;;;;;;16.85;12.77;;;;;;;;;;5010846;28;20021;-72
2022/08/25 07:38:19;;;;;;;17.30;15.35;;;;;;;;;;4999504;28;20014;-71
2022/08/25 07:40:45;;;;;;;17.27;14.18;;;;;;;;;;5008148;28;20104;-71
2022/08/25 07:43:11;;;;;;;22.67;15.95;;;;;;;;;;5008657;28;20109;-70
2022/08/25 07:45:39;;;;;;;14.80;12.63;;;;;;;;;;4995705;28;20152;-71
2022/08/25 07:48:05;;;;;;;19.60;13.75;;;;;;;;;;4991504;28;20022;-71
2022/08/25 07:50:31;;;;;;;15.68;12.27;;;;;;;;;;4992500;28;20033;-70
2022/08/25 07:52:58;;;;;;;19.33;14.50;;;;;;;;;;4995433;28;20100;-71
2022/08/25 07:55:24;;;;;;;19.55;14.48;;;;;;;;;;4997270;28;20037;-72
2022/08/25 07:57:51;;;;;;;20.27;13.35;;;;;;;;;;5007139;28;20615;-72
2022/08/25 08:00:17;;;;;;;22.23;14.50;;;;;;;;;;5006550;28;20026;-69
2022/08/25 08:02:43;;;;;;;21.15;14.77;;;;;;;;;;4998792;28;20026;-70
2022/08/25 08:05:10;;;;;;;15.80;12.30;;;;;;;;;;5001693;28;20022;-71
2022/08/25 08:07:37;;;;;;;18.20;14.10;;;;;;;;;;4992636;28;20146;-71
2022/08/25 08:10:04;;;;;;;16.73;11.90;;;;;;;;;;4992711;28;20392;-70
2022/08/25 08:12:30;;;;;;;15.07;11.68;;;;;;;;;;5006052;28;20030;-71
2022/08/25 08:14:59;;;;;;;22.05;12.75;;;;;;;;;;5000163;28;20081;-70
2022/08/25 08:17:25;;;;;;;18.38;12.57;;;;;;;;;;4995484;28;20041;-70
2022/08/25 08:19:51;;;;;;;19.08;12.80;;;;;;;;;;4998770;28;20030;-71
2022/08/25 08:22:17;;;;;;;19.25;11.88;;;;;;;;;;4997435;28;20026;-70
2022/08/25 08:24:44;;;;;;;19.40;12.70;;;;;;;;;;4991574;28;20034;-71
2022/08/25 08:27:11;;;;;;;24.83;13.57;;;;;;;;;;4990950;28;20027;-71
2022/08/25 08:29:38;;;;;;;18.60;15.05;;;;;;;;;;5004903;28;20031;-70
2022/08/25 08:32:05;;;;;;;22.88;14.88;;;;;;;;;;4996364;28;20101;-71
2022/08/25 08:34:31;;;;;;;16.50;13.10;;;;;;;;;;4992111;28;20341;-71
2022/08/25 08:36:58;;;;;;;20.17;13.05;;;;;;;;;;4992253;28;20035;-72
2022/08/25 08:39:24;;;;;;;18.08;12.50;;;;;;;;;;4992321;28;20022;-72
2022/08/25 08:44:38;;;;;;;18.88;13.88;;;;;;;;;;4998478;28;20107;-71
2022/08/25 08:47:23;;;;;;;18.92;12.65;;;;;;;;;;4998962;28;20042;-70
2022/08/25 08:49:49;;;;;;;20.73;13.27;;;;;;;;;;4992058;28;20611;-71
2022/08/25 08:52:17;;;;;;;16.33;11.77;;;;;;;;;;4992446;28;20022;-71
2022/08/25 08:54:45;;;;;;;15.88;10.98;;;;;;;;;;5003916;28;20361;-71
2022/08/25 08:57:15;;;;;;;14.85;11.55;;;;;;;;;;4997191;28;20076;-72
2022/08/25 08:59:48;;;;;;;19.65;11.63;;;;;;;;;;5003158;28;20413;-70
2022/08/25 09:02:31;;;;;;;16.05;12.40;;;;;;;;;;4997321;28;20467;-72
2022/08/25 09:04:59;;;;;;;18.38;12.00;;;;;;;;;;4992303;28;20136;-71
2022/08/25 09:07:29;;;;;;;19.95;13.23;;;;;;;;;;4991805;28;20023;-71
2022/08/25 09:09:56;;;;;;;17.57;11.90;;;;;;;;;;4992033;28;20040;-70
2022/08/25 09:12:24;;;;;;;18.48;11.45;;;;;;;;;;5011118;28;20347;-71
2022/08/25 09:14:50;;;;;;;24.02;12.23;;;;;;;;;;5011616;28;20025;-71
2022/08/25 09:17:31;;;;;;;19.70;10.50;;;;;;;;;;5010708;28;20041;-71
2022/08/25 09:19:57;;;;;;;15.15;9.57;;;;;;;;;;5011506;28;20029;-71
2022/08/25 09:22:31;;;;;;;15.13;10.02;;;;;;;;;;5011110;28;20388;-71
2022/08/25 09:25:12;;;;;;;18.48;11.35;;;;;;;;;;5003220;28;20034;-71
2022/08/25 09:27:50;;;;;;;14.98;10.15;;;;;;;;;;5013222;28;20022;-72
2022/08/25 09:30:21;;;;;;;21.70;11.20;;;;;;;;;;5009777;28;20034;-72
2022/08/25 09:32:49;;;;;;;16.60;10.23;;;;;;;;;;5012349;28;20373;-71
2022/08/25 09:35:19;;;;;;;15.85;10.18;;;;;;;;;;5011709;28;20030;-70
2022/08/25 09:38:02;;;;;;;15.70;8.73;;;;;;;;;;5011562;28;20112;-71
2022/08/25 09:40:29;;;;;;;17.35;9.93;;;;;;;;;;5017557;28;20449;-71
2022/08/25 09:42:57;;;;;;;18.15;12.00;;;;;;;;;;5017390;28;20035;-70
2022/08/25 09:45:42;;;;;;;14.63;9.85;;;;;;;;;;5017914;28;20052;-71
2022/08/25 09:48:28;;;;;;;16.85;9.02;;;;;;;;;;5010757;28;20062;-71
2022/08/25 09:50:58;;;;;;;17.70;10.25;;;;;;;;;;5010910;28;20033;-71
2022/08/25 09:53:24;;;;;;;13.80;8.52;;;;;;;;;;5003580;28;20159;-71
2022/08/25 09:55:59;;;;;;;14.63;8.77;;;;;;;;;;5025979;28;20082;-71
2022/08/25 09:58:26;;;;;;;15.35;8.65;;;;;;;;;;5014207;28;20080;-71
2022/08/25 10:01:04;;;;;;;17.30;9.27;;;;;;;;;;5018894;28;20113;-69
2022/08/25 10:03:31;;;;;;;26.42;9.80;;;;;;;;;;5012513;28;20029;-72
2022/08/25 10:06:00;;;;;;;20.50;10.00;;;;;;;;;;5021449;28;20511;-71
2022/08/25 10:08:31;;;;;;;20.80;9.48;;;;;;;;;;5003455;28;20045;-72
2022/08/25 10:10:57;;;;;;;;;;;;;;;;;;5016721;28;20124;-71
2022/08/25 10:13:32;;;;;;;22.65;8.80;;;;;;;;;;5023962;28;19944;-71
2022/08/25 10:18:36;;;;;;;19.20;8.82;;;;;;;;;;5074783;28;20070;-71
2022/08/25 10:21:02;;;;;;;17.88;8.77;;;;;;;;;;5078081;28;20391;-73
2022/08/25 10:23:28;;;;;;;21.25;8.40;;;;;;;;;;5079000;28;20032;-73
2022/08/25 10:25:55;;;;;;;34.03;8.95;;;;;;;;;;5074947;28;20025;-71
2022/08/25 10:28:28;;;;;;;19.13;8.57;;;;;;;;;;5061812;28;20060;-71
2022/08/25 10:31:05;;;;;;;21.10;9.23;;;;;;;;;;5056746;28;20049;-72
2022/08/25 10:34:01;;;;;;;21.10;8.68;;;;;;;;;;5052994;28;20029;-74
2022/08/25 10:36:37;;;;;;;23.58;8.77;;;;;;;;;;5007852;28;20448;-72
2022/08/25 10:39:03;;;;;;;21.80;8.23;;;;;;;;;;5062223;28;20536;-73
2022/08/25 10:41:32;;;;;;;26.05;7.63;;;;;;;;;;5057222;28;20039;-72
2022/08/25 10:47:15;;;;;;;26.45;8.55;;;;;;;;;;5060030;28;20070;-71
2022/08/25 10:49:52;;;;;;;26.27;7.28;;;;;;;;;;5063055;28;20035;-71
2022/08/25 10:52:23;;;;;;;30.23;7.43;;;;;;;;;;5058051;28;20024;-71
2022/08/25 10:54:49;;;;;;;38.90;8.15;;;;;;;;;;5054429;28;20032;-71
2022/08/25 10:57:35;;;;;;;25.85;8.15;;;;;;;;;;5053095;28;20017;-71
2022/08/25 11:00:07;;;;;;;32.67;7.60;;;;;;;;;;5068051;28;20119;-71
2022/08/25 11:02:52;;;;;;;28.73;8.10;;;;;;;;;;5071586;28;20028;-72
2022/08/25 11:05:27;;;;;;;27.55;7.95;;;;;;;;;;5070069;28;20027;-72
2022/08/25 11:07:57;;;;;;;26.63;9.05;;;;;;;;;;5067205;28;20025;-71
2022/08/25 11:10:25;;;;;;;30.03;7.90;;;;;;;;;;5053363;28;20098;-72
2022/08/25 11:12:54;;;;;;;34.10;9.05;;;;;;;;;;5051701;28;20036;-72
2022/08/25 11:15:20;;;;;;;23.10;6.97;;;;;;;;;;5053453;28;20078;-72
2022/08/25 11:17:54;;;;;;;32.38;7.57;;;;;;;;;;5052581;28;20025;-73
2022/08/25 11:20:23;;;;;;;33.28;8.32;;;;;;;;;;5053100;28;20491;-71
2022/08/25 11:22:49;;;;;;;31.73;7.53;;;;;;;;;;5054997;28;20091;-72
2022/08/25 11:25:25;;;;;;;34.55;7.75;;;;;;;;;;5055267;28;20033;-71
2022/08/25 11:28:10;;;;;;;38.80;8.68;;;;;;;;;;5055180;28;20025;-72
2022/08/25 11:30:37;;;;;;;36.17;8.80;;;;;;;;;;5059843;28;20032;-72
2022/08/25 11:33:03;;;;;;;41.20;8.38;;;;;;;;;;5052942;28;20047;-72
2022/08/25 11:35:29;;;;;;;26.15;8.02;;;;;;;;;;5052662;28;20076;-72
2022/08/25 11:38:07;;;;;;;24.73;7.28;;;;;;;;;;5064897;28;20124;-72
2022/08/25 11:40:43;;;;;;;26.05;7.72;;;;;;;;;;5050846;28;20028;-72
2022/08/25 11:43:33;;;;;;;31.25;8.05;;;;;;;;;;5052605;28;20108;-73
2022/08/25 11:46:28;;;;;;;27.20;9.02;;;;;;;;;;5024094;28;20103;-73
2022/08/25 11:48:58;;;;;;;26.42;6.93;;;;;;;;;;4998018;28;20038;-73
2022/08/25 11:51:30;;;;;;;25.65;7.35;;;;;;;;;;5052547;28;20031;-73
2022/08/25 11:54:15;;;;;;;28.67;7.40;;;;;;;;;;5052410;28;20025;-72
2022/08/25 11:56:41;;;;;;;28.17;7.65;;;;;;;;;;5052189;28;20532;-71
2022/08/25 11:59:07;;;;;;;25.23;7.40;;;;;;;;;;5058903;28;20028;-73
2022/08/25 12:01:39;;;;;;;26.63;7.55;;;;;;;;;;5070771;28;20050;-73
2022/08/25 12:04:13;;;;;;;31.25;8.32;;;;;;;;;;5069914;28;20048;-73
2022/08/25 12:06:58;;;;;;;24.23;7.95;;;;;;;;;;5051697;28;20024;-71
2022/08/25 12:09:24;;;;;;;32.65;8.98;;;;;;;;;;5051719;28;20386;-73
2022/08/25 12:11:53;;;;;;;25.25;7.43;;;;;;;;;;5051992;28;20032;-73
2022/08/25 12:14:22;;;;;;;24.13;7.50;;;;;;;;;;5051804;28;20056;-73
2022/08/25 12:16:54;;;;;;;37.17;7.88;;;;;;;;;;5059636;28;20032;-72
2022/08/25 12:19:26;;;;;;;27.55;6.35;;;;;;;;;;5066839;28;20021;-71
2022/08/25 12:21:56;;;;;;;25.08;7.28;;;;;;;;;;5052031;28;20119;-73
2022/08/25 12:24:46;;;;;;;27.42;7.35;;;;;;;;;;5051648;28;20079;-71
2022/08/25 12:27:24;;;;;;;25.52;7.90;;;;;;;;;;5043109;28;20040;-71
2022/08/25 12:29:54;;;;;;;25.52;7.47;;;;;;;;;;5056057;28;20032;-72
2022/08/25 12:32:40;;;;;;;28.92;7.20;;;;;;;;;;5051646;28;20203;-73
2022/08/25 12:35:25;;;;;;;22.60;7.25;;;;;;;;;;5040609;28;20483;-73
2022/08/25 12:37:56;;;;;;;27.15;7.57;;;;;;;;;;5051284;28;20482;-72
2022/08/25 12:40:22;;;;;;;;;;;;;;;;;;5052062;28;20029;-72
2022/08/25 12:43:00;;;;;;;26.00;7.22;;;;;;;;;;5050127;28;19912;-73
2022/08/25 12:45:32;;;;;;;25.30;7.45;;;;;;;;;;5051339;28;20029;-73
2022/08/25 12:48:18;;;;;;;25.70;7.13;;;;;;;;;;5057791;28;20029;-73
2022/08/25 12:50:48;;;;;;;23.52;6.57;;;;;;;;;;5063986;28;20367;-72
2022/08/25 12:53:35;;;;;;;19.23;6.25;;;;;;;;;;5062502;28;20052;-73
2022/08/25 12:56:09;;;;;;;17.70;6.20;;;;;;;;;;5050623;28;20079;-72
2022/08/25 12:58:58;;;;;;;19.25;7.18;;;;;;;;;;5053437;28;20016;-73
2022/08/25 13:01:51;;;;;;;21.35;5.88;;;;;;;;;;5062428;28;20032;-71
2022/08/25 13:04:20;;;;;;;26.52;6.50;;;;;;;;;;5049474;28;20084;-71
2022/08/25 13:06:55;;;;;;;27.40;7.00;;;;;;;;;;5050839;28;20090;-71
2022/08/25 13:09:21;;;;;;;25.48;6.05;;;;;;;;;;5050910;28;20021;-73
2022/08/25 13:12:00;;;;;;;25.55;7.47;;;;;;;;;;5049694;28;20083;-72
2022/08/25 13:14:33;;;;;;;29.50;6.93;;;;;;;;;;5049859;28;20162;-74
2022/08/25 13:16:59;;;;;;;24.20;6.57;;;;;;;;;;5051001;28;20025;-71
2022/08/25 13:19:27;;;;;;;20.70;6.00;;;;;;;;;;5050743;28;20024;-72
2022/08/25 13:21:55;;;;;;;30.92;6.75;;;;;;;;;;5051035;28;20429;-73
2022/08/25 13:24:49;;;;;;;26.13;6.28;;;;;;;;;;5051128;28;20024;-73
2022/08/25 13:27:23;;;;;;;24.90;7.05;;;;;;;;;;5049072;28;20028;-70
2022/08/25 13:29:51;;;;;;;27.02;7.28;;;;;;;;;;5055386;28;20025;-72
2022/08/25 13:32:24;;;;;;;30.40;7.63;;;;;;;;;;5050808;28;20479;-72
2022/08/25 13:34:53;;;;;;;34.05;7.45;;;;;;;;;;5051125;28;20398;-72
2022/08/25 13:37:28;;;;;;;31.50;6.82;;;;;;;;;;5050503;28;20016;-72
2022/08/25 13:40:09;;;;;;;34.83;8.70;;;;;;;;;;5051521;28;20391;-72
2022/08/25 13:42:36;;;;;;;24.42;6.55;;;;;;;;;;5051047;28;20021;-72
2022/08/25 13:45:06;;;;;;;23.67;6.65;;;;;;;;;;5050967;28;20049;-72
2022/08/25 13:47:37;;;;;;;30.95;7.07;;;;;;;;;;5053731;28;20344;-72
2022/08/25 13:50:16;;;;;;;22.80;5.93;;;;;;;;;;5054714;28;20095;-71
2022/08/25 13:52:46;;;;;;;25.20;6.93;;;;;;;;;;5054749;28;20025;-71
2022/08/25 13:55:18;;;;;;;24.73;6.27;;;;;;;;;;5055028;28;20398;-72
2022/08/25 13:57:45;;;;;;;34.38;7.28;;;;;;;;;;5054490;28;20244;-72
2022/08/25 14:00:11;;;;;;;33.72;7.07;;;;;;;;;;5049374;28;20033;-72
2022/08/25 14:02:43;;;;;;;29.17;6.70;;;;;;;;;;5069510;28;20036;-71
2022/08/25 14:05:10;;;;;;;33.55;7.72;;;;;;;;;;5074462;28;20037;-72
2022/08/25 14:07:36;;;;;;;24.48;8.13;;;;;;;;;;5056689;28;20018;-71
2022/08/25 14:10:08;;;;;;;31.10;7.28;;;;;;;;;;5054972;28;20040;-71
2022/08/25 14:12:40;;;;;;;31.85;6.97;;;;;;;;;;5054606;28;20013;-72
2022/08/25 14:15:12;;;;;;;26.25;7.80;;;;;;;;;;5055771;28;20107;-71
2022/08/25 14:17:40;;;;;;;31.98;7.63;;;;;;;;;;5054514;28;20021;-71
2022/08/25 14:20:15;;;;;;;29.20;7.72;;;;;;;;;;5055172;28;20029;-73
2022/08/25 14:22:41;;;;;;;32.08;7.55;;;;;;;;;;5054760;28;20039;-72
2022/08/25 14:25:07;;;;;;;33.25;7.85;;;;;;;;;;5054919;28;20113;-74
2022/08/25 14:27:33;;;;;;;32.40;7.80;;;;;;;;;;5054500;28;20021;-73
2022/08/25 14:29:59;;;;;;;27.35;7.43;;;;;;;;;;5059727;28;20024;-72
2022/08/25 14:32:26;;;;;;;29.08;7.13;;;;;;;;;;5054590;28;20114;-73
2022/08/25 14:34:52;;;;;;;24.85;7.55;;;;;;;;;;5054671;28;20096;-73
2022/08/25 14:37:19;;;;;;;27.85;7.30;;;;;;;;;;5054174;28;20025;-71
2022/08/25 14:39:45;;;;;;;31.90;7.50;;;;;;;;;;5054037;28;20017;-71
2022/08/25 14:42:12;;;;;;;24.77;7.00;;;;;;;;;;5054345;28;20029;-72